Time;durP1;ratioP1;P1;durP2;ratioP2;P2;SDS_P1;SDS_P2;PMS_P1;PMS_P2;Temp;Humidity;BMP_temperature;BMP_pressure;BME280_temperature;BME280_humidity;BME280_pressure;Samples;Min_cycle;Max_cycle;Signal;HPM_P1;HPM_P2
2022/06/01 00:02:10;;;;;;;36.85;20.35;;;;;;;19.82;73.21;101264.06;4921864;29;20031;-86
2022/06/01 00:04:35;;;;;;;36.85;20.02;;;;;;;19.81;73.41;101272.88;4937539;29;20035;-86
2022/06/01 00:07:01;;;;;;;34.92;19.45;;;;;;;19.74;73.59;101260.22;4937781;29;20040;-87
2022/06/01 00:09:26;;;;;;;41.05;18.63;;;;;;;19.76;73.98;101273.22;4921860;29;20035;-86
2022/06/01 00:11:52;;;;;;;28.02;16.20;;;;;;;19.82;74.38;101275.38;4953392;29;20039;-87
2022/06/01 00:14:18;;;;;;;31.98;15.52;;;;;;;19.80;74.20;101272.06;4921446;29;20035;-86
2022/06/01 00:16:43;;;;;;;29.70;15.73;;;;;;;19.75;74.33;101269.75;4937510;29;20527;-87
2022/06/01 00:19:10;;;;;;;32.20;15.90;;;;;;;19.71;74.35;101268.34;4953531;29;20035;-87
2022/06/01 00:22:11;;;;;;;30.80;15.00;;;;;;;19.69;74.21;101270.25;4937359;29;20039;-86
2022/06/01 00:24:21;;;;;;;27.98;14.60;;;;;;;19.60;74.54;101270.97;4953000;29;20115;-87
2022/06/01 00:26:48;;;;;;;32.50;16.35;;;;;;;19.57;74.60;101284.31;4952795;29;20498;-86
2022/06/01 00:29:14;;;;;;;32.78;16.13;;;;;;;19.42;75.17;101267.06;4921589;29;20187;-86
2022/06/01 00:31:39;;;;;;;30.75;16.13;;;;;;;19.44;75.11;101276.50;4937317;29;20497;-86
2022/06/01 00:34:05;;;;;;;30.17;16.05;;;;;;;19.52;74.60;101285.59;4954133;28;20548;-87
2022/06/01 00:36:30;;;;;;;32.10;15.57;;;;;;;19.57;74.32;101289.56;4953062;28;20031;-86
2022/06/01 00:38:56;;;;;;;29.85;16.10;;;;;;;19.47;74.62;101285.94;4921099;29;20051;-86
2022/06/01 00:41:21;;;;;;;28.88;15.55;;;;;;;19.34;74.24;101274.69;4953660;28;20078;-87
2022/06/01 00:43:46;;;;;;;31.75;16.38;;;;;;;19.25;74.55;101260.47;4937402;29;20034;-87
2022/06/01 00:46:12;;;;;;;31.42;15.52;;;;;;;19.37;74.47;101271.81;4953884;28;20090;-87
2022/06/01 00:48:40;;;;;;;28.88;15.65;;;;;;;19.45;74.27;101272.91;4952710;29;20031;-88
2022/06/01 00:51:07;;;;;;;29.52;15.68;;;;;;;19.34;74.50;101253.69;4921125;29;20114;-86
2022/06/01 00:53:34;;;;;;;29.05;16.63;;;;;;;19.32;74.59;101266.94;4936772;29;20028;-87
2022/06/01 00:56:02;;;;;;;28.88;15.60;;;;;;;19.25;74.83;101268.34;4936703;29;20771;-86
2022/06/01 00:58:38;;;;;;;28.80;16.48;;;;;;;19.14;75.23;101260.44;4936656;29;20027;-86
2022/06/01 01:01:04;;;;;;;28.98;15.82;;;;;;;19.21;75.22;101264.28;4920940;29;20441;-87
2022/06/01 01:03:33;;;;;;;31.58;16.25;;;;;;;19.11;74.98;101244.94;4921106;29;20042;-86
2022/06/01 01:06:11;;;;;;;28.85;16.00;;;;;;;19.14;75.62;101260.44;4936546;29;20106;-87
2022/06/01 01:08:37;;;;;;;27.75;15.93;;;;;;;18.97;75.51;101235.47;4952556;28;20038;-86
2022/06/01 01:11:06;;;;;;;29.13;16.33;;;;;;;19.06;74.92;101234.78;4951955;29;20032;-86
2022/06/01 01:13:31;;;;;;;30.17;16.50;;;;;;;19.12;75.27;101251.88;4920789;29;20035;-87
2022/06/01 01:15:58;;;;;;;32.40;17.30;;;;;;;19.02;75.48;101256.13;4936207;29;20667;-86
2022/06/01 01:18:29;;;;;;;31.38;16.35;;;;;;;19.10;75.39;101259.84;4920996;29;20031;-87
2022/06/01 01:21:20;;;;;;;28.50;16.35;;;;;;;18.96;75.40;101246.91;4952109;29;20031;-86
2022/06/01 01:23:46;;;;;;;33.47;17.23;;;;;;;19.08;75.45;101260.91;4952179;28;20038;-87
2022/06/01 01:26:11;;;;;;;30.13;16.50;;;;;;;19.17;75.13;101268.06;4951720;28;20031;-87
2022/06/01 01:28:37;;;;;;;30.65;16.55;;;;;;;18.90;75.50;101227.25;4920421;29;20031;-87
2022/06/01 01:31:17;;;;;;;31.23;16.35;;;;;;;19.06;75.17;101247.06;4952184;29;20038;-86
2022/06/01 01:33:43;;;;;;;30.63;15.95;;;;;;;19.07;74.97;101236.44;4936766;29;20046;-86
2022/06/01 01:36:10;;;;;;;30.23;16.35;;;;;;;19.22;75.09;101254.63;4935944;29;20031;-85
2022/06/01 01:38:59;;;;;;;31.58;16.55;;;;;;;19.20;75.25;101252.97;4919915;29;20080;-87
2022/06/01 01:41:33;;;;;;;27.33;16.13;;;;;;;19.11;75.08;101250.19;4951489;29;20549;-86
2022/06/01 01:44:04;;;;;;;31.88;16.45;;;;;;;19.22;75.15;101270.38;4936201;29;20035;-86
2022/06/01 01:46:30;;;;;;;32.42;16.20;;;;;;;19.13;75.30;101261.41;4951941;29;20078;-87
2022/06/01 01:48:55;;;;;;;32.90;17.60;;;;;;;19.07;75.27;101249.56;4935717;29;20408;-86
2022/06/01 01:51:22;;;;;;;31.13;18.45;;;;;;;19.02;75.47;101243.84;4936184;29;20046;-86
2022/06/01 01:53:47;;;;;;;35.33;19.50;;;;;;;19.07;75.45;101244.31;4935888;29;20027;-86
2022/06/01 01:56:38;;;;;;;36.33;18.45;;;;;;;19.10;75.36;101257.22;4935909;29;20033;-86
2022/06/01 01:59:13;;;;;;;30.95;18.13;;;;;;;19.10;75.52;101248.53;4935704;29;20027;-86
2022/06/01 02:01:55;;;;;;;32.38;17.67;;;;;;;19.09;75.34;101250.31;4920494;29;20503;-87
2022/06/01 02:07:18;;;;;;;35.63;17.75;;;;;;;18.90;75.69;101237.72;4938432;29;20034;-86
2022/06/01 02:12:43;;;;;;;32.60;19.08;;;;;;;18.95;75.78;101255.72;4938083;29;20038;-86
2022/06/01 02:15:20;;;;;;;36.63;18.27;;;;;;;18.96;75.27;101273.13;4937747;29;20063;-86
2022/06/01 02:17:49;;;;;;;34.42;18.58;;;;;;;18.75;74.78;101266.84;4920626;29;20038;-86
2022/06/01 02:20:30;;;;;;;40.28;19.05;;;;;;;18.66;74.10;101263.09;4951861;29;20038;-86
2022/06/01 02:22:55;;;;;;;37.40;19.17;;;;;;;18.60;73.98;101266.16;4935968;29;20027;-85
2022/06/01 02:25:21;;;;;;;42.00;19.25;;;;;;;18.57;74.21;101267.19;4935240;29;20472;-86
2022/06/01 02:27:47;;;;;;;41.22;19.95;;;;;;;18.48;73.48;101249.50;4919636;29;20031;-86
2022/06/01 02:30:15;;;;;;;42.13;20.33;;;;;;;18.37;73.45;101262.56;4935253;29;20027;-86
2022/06/01 02:32:41;;;;;;;40.97;20.27;;;;;;;18.32;74.25;101251.59;4919754;29;20059;-86
2022/06/01 02:35:07;;;;;;;41.00;19.77;;;;;;;18.31;74.29;101247.28;4935180;29;20448;-86
2022/06/01 02:37:33;;;;;;;41.83;19.17;;;;;;;18.32;74.17;101238.50;4934763;29;20047;-86
2022/06/01 02:39:59;;;;;;;42.70;19.63;;;;;;;18.34;73.87;101247.06;4935184;29;20473;-85
2022/06/01 02:42:30;;;;;;;38.53;19.83;;;;;;;18.24;74.26;101240.81;4935424;29;20031;-87
2022/06/01 02:45:06;;;;;;;39.55;19.85;;;;;;;18.21;74.11;101256.75;4921024;29;20118;-86
2022/06/01 02:47:33;;;;;;;38.88;19.73;;;;;;;18.13;74.45;101264.31;4951527;29;20497;-86
2022/06/01 02:49:59;;;;;;;41.08;19.77;;;;;;;18.12;74.46;101267.88;4919571;29;20477;-86
2022/06/01 02:52:25;;;;;;;41.42;20.27;;;;;;;17.98;74.50;101245.25;4950988;29;20051;-84
2022/06/01 02:54:52;;;;;;;40.35;19.10;;;;;;;18.09;74.77;101289.00;4934993;29;20027;-85
2022/06/01 02:57:17;;;;;;;35.70;17.65;;;;;;;18.06;74.45;101296.16;4935711;29;20488;-86
2022/06/01 02:59:43;;;;;;;37.42;17.45;;;;;;;18.14;74.09;101302.63;4935190;29;20030;-86
2022/06/01 03:02:11;;;;;;;36.92;17.00;;;;;;;18.00;73.87;101296.59;4935256;29;20066;-86
2022/06/01 03:04:37;;;;;;;32.40;16.48;;;;;;;18.05;73.36;101298.88;4935394;29;20083;-85
2022/06/01 03:07:03;;;;;;;30.58;16.17;;;;;;;18.05;73.51;101296.25;4935062;29;20027;-84
2022/06/01 03:09:29;;;;;;;31.00;15.00;;;;;;;18.21;73.71;101303.91;4935046;29;20019;-85
2022/06/01 03:11:54;;;;;;;32.38;15.73;;;;;;;18.35;72.66;101312.44;4951090;29;20031;-85
2022/06/01 03:14:20;;;;;;;35.42;16.20;;;;;;;18.17;73.15;101310.28;4919280;29;20085;-85
2022/06/01 03:16:45;;;;;;;33.22;16.80;;;;;;;18.27;72.99;101325.22;4951066;29;20496;-84
2022/06/01 03:19:11;;;;;;;33.60;16.95;;;;;;;18.15;72.88;101333.94;4935101;29;20027;-85
2022/06/01 03:21:37;;;;;;;41.40;16.23;;;;;;;18.85;70.92;101318.50;4919073;29;20027;-85
2022/06/01 03:24:05;;;;;;;95.65;16.92;;;;;;;19.17;69.62;101331.88;4934963;29;20465;-85
2022/06/01 03:26:30;;;;;;;82.50;19.05;;;;;;;19.16;68.90;101319.69;4935658;29;20062;-85
2022/06/01 03:28:56;;;;;;;73.07;15.98;;;;;;;19.47;68.12;101317.44;4951139;28;20118;-85
2022/06/01 03:31:21;;;;;;;101.75;18.27;;;;;;;19.77;66.84;101325.63;4938438;29;20090;-85
2022/06/01 03:33:47;;;;;;;44.63;15.23;;;;;;;20.21;65.24;101320.50;4955431;28;20082;-87
2022/06/01 03:36:12;;;;;;;38.70;14.95;;;;;;;20.54;64.48;101333.63;4938112;29;20102;-86
2022/06/01 03:38:38;;;;;;;26.92;13.80;;;;;;;20.57;64.23;101325.53;4937856;29;20429;-86
2022/06/01 03:41:04;;;;;;;28.00;14.60;;;;;;;20.23;64.76;101342.25;4922595;29;20023;-86
2022/06/01 03:43:30;;;;;;;30.15;14.50;;;;;;;19.76;65.71;101323.97;4938290;29;20456;-86
2022/06/01 03:45:56;;;;;;;32.78;14.88;;;;;;;19.43;66.82;101321.22;4938208;29;20078;-87
2022/06/01 03:48:29;;;;;;;31.98;14.82;;;;;;;19.22;68.89;101331.53;4938136;29;20122;-87
2022/06/01 03:50:56;;;;;;;28.23;13.93;;;;;;;19.73;67.00;101345.19;4937639;29;20050;-86
2022/06/01 03:53:23;;;;;;;30.38;15.30;;;;;;;19.69;66.76;101325.38;4938077;29;20114;-86
2022/06/01 03:55:48;;;;;;;31.23;15.15;;;;;;;19.56;67.56;101336.91;4938235;29;20555;-87
2022/06/01 03:58:15;;;;;;;51.22;28.02;;;;;;;20.52;64.35;101345.22;4937980;29;20086;-87
2022/06/01 04:00:41;;;;;;;32.78;16.75;;;;;;;20.54;64.51;101338.88;4938025;29;20076;-86
2022/06/01 04:03:07;;;;;;;28.20;16.02;;;;;;;20.26;65.28;101342.84;4937802;29;20027;-87
2022/06/01 04:05:32;;;;;;;35.47;20.77;;;;;;;20.08;66.81;101346.06;4937655;29;20039;-87
2022/06/01 04:07:58;;;;;;;32.60;17.38;;;;;;;19.96;67.37;101342.59;4954039;29;20042;-87
2022/06/01 04:10:23;;;;;;;33.70;17.23;;;;;;;19.92;67.64;101343.78;4937683;29;20024;-86
2022/06/01 04:12:49;;;;;;;35.95;17.65;;;;;;;19.77;68.21;101341.38;4937665;29;20027;-87
2022/06/01 04:15:15;;;;;;;38.85;19.63;;;;;;;19.68;69.07;101325.50;4937875;29;20086;-85
2022/06/01 04:17:40;;;;;;;44.00;18.13;;;;;;;19.79;69.26;101332.56;4950556;28;20353;-86
2022/06/01 04:20:06;;;;;;;31.13;18.63;;;;;;;19.75;69.86;101338.03;4952090;28;20027;-88
2022/06/01 04:22:32;;;;;;;35.35;17.75;;;;;;;19.69;70.34;101343.75;4955098;28;20038;-86
2022/06/01 04:24:58;;;;;;;32.17;17.60;;;;;;;19.60;70.59;101343.63;4937533;29;20473;-84
2022/06/01 04:27:23;;;;;;;33.10;17.10;;;;;;;19.55;71.18;101341.28;4936107;29;20035;-87
2022/06/01 04:29:49;;;;;;;125.75;53.85;;;;;;;19.49;71.37;101349.66;4936884;29;20034;-87
2022/06/01 04:32:19;;;;;;;73.57;45.83;;;;;;;19.39;72.21;101359.16;4934078;28;20031;-87
2022/06/01 04:34:44;;;;;;;75.05;38.10;;;;;;;19.19;72.71;101327.34;4950871;29;20077;-86
2022/06/01 04:37:10;;;;;;;50.55;22.95;;;;;;;19.31;72.74;101351.00;4952994;29;20504;-84
2022/06/01 04:39:35;;;;;;;35.35;17.63;;;;;;;19.32;73.09;101345.63;4936871;29;20027;-86
2022/06/01 04:42:01;;;;;;;44.53;20.83;;;;;;;19.38;73.05;101349.59;4951484;28;20039;-88
2022/06/01 04:44:26;;;;;;;38.80;18.98;;;;;;;19.42;73.01;101346.63;4953561;28;20404;-87
2022/06/01 04:46:52;;;;;;;36.40;19.88;;;;;;;19.39;73.14;101346.88;4936318;29;20031;-87
2022/06/01 04:49:17;;;;;;;38.90;18.98;;;;;;;19.54;73.06;101359.78;4951863;28;20066;-91
2022/06/01 04:51:43;;;;;;;41.75;19.35;;;;;;;19.48;72.38;101333.06;4952561;29;20027;-85
2022/06/01 04:54:08;;;;;;;39.83;19.33;;;;;;;19.68;72.26;101351.75;4935685;29;20063;-85
2022/06/01 04:56:35;;;;;;;49.72;23.05;;;;;;;19.82;72.02;101361.19;4952319;29;20058;-93
2022/06/01 04:59:00;;;;;;;48.25;27.20;;;;;;;19.71;72.55;101341.84;4921099;29;20031;-87
2022/06/01 05:01:26;;;;;;;54.05;27.45;;;;;;;19.69;72.63;101342.91;4937260;29;20110;-94
2022/06/01 05:03:51;;;;;;;40.63;21.05;;;;;;;20.15;70.26;101324.44;4922231;29;20038;-87
2022/06/01 05:06:17;;;;;;;43.88;23.52;;;;;;;20.71;69.07;101350.69;4950389;29;20031;-83
2022/06/01 05:08:42;;;;;;;45.95;26.92;;;;;;;21.03;67.83;101357.78;4951864;28;20404;-84
2022/06/01 05:11:08;;;;;;;47.75;26.98;;;;;;;21.03;68.48;101365.66;4953324;28;20031;-84
2022/06/01 05:13:33;;;;;;;47.75;27.08;;;;;;;21.10;67.85;101353.69;4951331;28;20067;-83
2022/06/01 05:15:59;;;;;;;49.58;26.75;;;;;;;21.04;68.28;101360.31;4951985;29;20481;-86
2022/06/01 05:18:25;;;;;;;43.22;25.65;;;;;;;21.34;67.67;101358.78;4934876;29;20046;-83
2022/06/01 05:20:51;;;;;;;46.83;24.02;;;;;;;21.25;68.24;101357.72;4950851;29;20472;-84
2022/06/01 05:23:17;;;;;;;45.42;22.92;;;;;;;21.55;67.42;101361.44;4935513;29;20031;-83
2022/06/01 05:25:44;;;;;;;36.53;21.50;;;;;;;21.58;67.00;101363.81;4950943;28;20481;-86
2022/06/01 05:28:09;;;;;;;45.22;20.65;;;;;;;21.63;66.84;101336.13;4951646;29;20070;-84
2022/06/01 05:30:35;;;;;;;44.88;21.23;;;;;;;21.71;67.17;101356.53;4951181;28;20062;-86
2022/06/01 05:33:00;;;;;;;41.05;21.85;;;;;;;21.68;67.24;101356.81;4949558;29;20035;-88
2022/06/01 05:35:26;;;;;;;42.38;19.15;;;;;;;22.06;65.76;101364.09;4935321;29;20394;-85
2022/06/01 05:37:51;;;;;;;42.53;23.15;;;;;;;21.88;66.06;101345.41;4953757;28;20047;-85
2022/06/01 05:40:17;;;;;;;42.33;21.42;;;;;;;21.92;66.45;101375.78;4958375;28;20034;-84
2022/06/01 05:42:42;;;;;;;51.22;23.88;;;;;;;21.86;66.24;101357.88;4931871;29;20529;-82
2022/06/01 05:45:09;;;;;;;47.47;28.75;;;;;;;22.05;65.88;101344.81;4933181;29;20028;-81
2022/06/01 05:47:36;;;;;;;43.42;22.88;;;;;;;21.98;65.90;101330.47;4946892;29;20038;-84
2022/06/01 05:50:02;;;;;;;37.70;21.75;;;;;;;22.08;65.68;101349.00;4949048;28;20129;-85
2022/06/01 05:52:28;;;;;;;40.15;22.15;;;;;;;21.92;65.78;101331.00;4957984;28;20555;-87
2022/06/01 05:54:53;;;;;;;41.97;22.55;;;;;;;21.91;66.39;101353.03;4957321;28;20058;-86
2022/06/01 05:57:19;;;;;;;35.53;19.88;;;;;;;22.14;65.75;101360.84;4953673;28;20039;-83
2022/06/01 05:59:44;;;;;;;40.53;20.83;;;;;;;22.03;66.31;101338.00;4934447;28;20030;-85
2022/06/01 06:02:11;;;;;;;32.97;19.10;;;;;;;22.01;66.12;101355.72;4950306;28;20500;-85
2022/06/01 06:04:36;;;;;;;30.48;17.77;;;;;;;21.60;66.88;101343.44;4934744;29;20035;-85
2022/06/01 06:07:02;;;;;;;28.83;16.30;;;;;;;21.64;67.26;101352.78;4937363;28;20031;-85
2022/06/01 06:09:27;;;;;;;38.50;17.35;;;;;;;21.81;66.83;101354.78;4935120;29;20122;-86
2022/06/01 06:11:53;;;;;;;30.38;18.20;;;;;;;21.95;66.31;101362.38;4935092;29;20464;-85
2022/06/01 06:14:19;;;;;;;28.95;15.93;;;;;;;21.86;65.99;101365.78;4935816;29;20045;-84
2022/06/01 06:16:45;;;;;;;37.95;15.88;;;;;;;21.85;65.75;101376.44;4933560;29;20027;-87
2022/06/01 06:19:11;;;;;;;27.05;15.75;;;;;;;21.70;66.54;101362.75;4934780;29;20027;-86
2022/06/01 06:21:37;;;;;;;24.02;14.30;;;;;;;22.10;65.66;101367.31;4920474;28;20027;-84
2022/06/01 06:24:07;;;;;;;25.02;13.88;;;;;;;22.13;64.27;101361.81;4954224;28;20050;-87
2022/06/01 06:26:33;;;;;;;25.45;13.82;;;;;;;22.02;65.40;101371.44;4938553;28;20039;-88
2022/06/01 06:29:00;;;;;;;27.33;15.23;;;;;;;22.00;65.13;101354.88;4947274;28;20956;-84
2022/06/01 06:31:26;;;;;;;21.42;14.10;;;;;;;22.18;63.93;101372.75;4934438;29;20073;-87
2022/06/01 06:33:51;;;;;;;24.38;13.45;;;;;;;22.21;64.85;101361.94;4944762;28;20027;-85
2022/06/01 06:36:17;;;;;;;23.13;13.18;;;;;;;22.03;64.68;101362.56;4960278;28;20456;-84
2022/06/01 06:38:42;;;;;;;25.45;14.02;;;;;;;21.87;65.44;101370.09;4952884;28;20508;-86
2022/06/01 06:41:08;;;;;;;34.67;15.40;;;;;;;22.28;64.65;101371.00;4934543;29;20023;-83
2022/06/01 06:43:34;;;;;;;29.55;14.95;;;;;;;22.44;63.91;101373.97;4933226;28;20039;-88
2022/06/01 06:46:08;;;;;;;26.70;15.18;;;;;;;22.60;63.68;101374.28;4950099;28;20099;-84
2022/06/01 06:48:33;;;;;;;25.23;14.77;;;;;;;22.44;62.59;101373.16;4934833;29;20079;-90
2022/06/01 06:50:59;;;;;;;24.10;14.93;;;;;;;22.30;63.80;101355.88;4935108;28;20035;-83
2022/06/01 06:53:24;;;;;;;29.50;16.05;;;;;;;22.30;63.44;101351.44;4934006;29;20110;-86
2022/06/01 06:55:50;;;;;;;23.33;14.98;;;;;;;22.43;63.60;101367.03;4933174;29;20039;-82
2022/06/01 06:58:16;;;;;;;45.00;25.40;;;;;;;22.71;62.96;101369.88;4918367;29;20461;-89
2022/06/01 07:00:41;;;;;;;22.83;13.98;;;;;;;22.73;61.49;101366.16;4949430;29;20042;-84
2022/06/01 07:03:07;;;;;;;21.67;13.27;;;;;;;22.54;62.20;101363.47;4949468;28;20035;-81
2022/06/01 07:08:16;;;;;;;24.00;13.68;;;;;;;22.95;60.85;101366.91;4940585;29;20050;-90
2022/06/01 07:10:41;;;;;;;23.30;14.05;;;;;;;22.54;61.93;101356.38;4938324;29;20031;-84
2022/06/01 07:13:07;;;;;;;22.90;12.98;;;;;;;22.83;62.38;101367.00;4952509;29;20035;-87
2022/06/01 07:15:32;;;;;;;22.30;13.68;;;;;;;23.16;60.88;101368.44;4954042;28;20452;-89
2022/06/01 07:17:58;;;;;;;25.35;14.20;;;;;;;23.05;60.89;101358.03;4921847;29;20035;-91
2022/06/01 07:20:23;;;;;;;21.08;13.27;;;;;;;23.14;61.55;101359.00;4953612;29;20027;-89
2022/06/01 07:22:49;;;;;;;24.00;12.27;;;;;;;23.46;61.34;101361.34;4937758;29;20416;-90
2022/06/01 07:25:14;;;;;;;19.08;11.38;;;;;;;23.58;59.63;101333.81;4953790;29;20034;-86
2022/06/01 07:27:40;;;;;;;22.48;12.63;;;;;;;23.71;59.08;101360.78;4954461;28;20023;-86
2022/06/01 07:30:06;;;;;;;26.15;13.43;;;;;;;23.61;59.62;101356.50;4934898;29;20031;-88
2022/06/01 07:32:32;;;;;;;21.15;12.55;;;;;;;23.55;59.93;101359.66;4951935;28;20027;-85
2022/06/01 07:34:57;;;;;;;20.92;13.25;;;;;;;23.73;59.14;101358.00;4954451;28;20039;-88
2022/06/01 07:43:06;;;;;;;25.52;15.93;;;;;;;24.15;59.91;101362.88;4939459;28;20046;-82
2022/06/01 07:45:38;;;;;;;26.73;14.45;;;;;;;24.17;59.05;101351.16;4967178;28;20046;-85
2022/06/01 07:48:05;;;;;;;25.13;12.82;;;;;;;24.23;59.14;101361.19;4930690;29;20473;-88
2022/06/01 07:50:31;;;;;;;20.80;12.32;;;;;;;24.35;57.88;101361.00;4952905;29;20035;-82
2022/06/01 07:52:57;;;;;;;22.13;12.20;;;;;;;24.36;58.01;101352.09;4939225;29;20030;-83
2022/06/01 07:55:23;;;;;;;24.67;14.63;;;;;;;24.50;57.06;101357.75;4936335;29;20038;-92
2022/06/01 07:57:48;;;;;;;18.52;11.48;;;;;;;24.55;55.80;101359.94;4955374;29;20110;-92
2022/06/01 08:00:14;;;;;;;16.05;9.88;;;;;;;24.62;56.39;101345.13;4939392;29;20027;-94
2022/06/01 08:02:40;;;;;;;19.42;9.98;;;;;;;24.77;55.46;101354.22;4938493;29;20035;-86
2022/06/01 08:05:06;;;;;;;17.73;10.10;;;;;;;25.00;54.76;101349.34;4934905;29;20485;-89
2022/06/01 08:07:33;;;;;;;20.55;11.98;;;;;;;25.12;55.36;101348.16;4936709;29;20042;-87
2022/06/01 08:09:59;;;;;;;33.90;17.10;;;;;;;25.03;54.46;101353.50;4920978;29;20058;-88
2022/06/01 08:15:11;;;;;;;19.15;10.95;;;;;;;25.33;52.12;101352.28;4952839;28;20198;-87
2022/06/01 08:17:36;;;;;;;16.92;9.73;;;;;;;25.31;51.71;101347.16;4967087;28;20039;-83
2022/06/01 08:20:02;;;;;;;15.80;10.35;;;;;;;25.36;52.63;101358.09;4952180;29;20050;-88
2022/06/01 08:22:28;;;;;;;15.35;10.02;;;;;;;25.13;52.88;101349.81;4948456;29;20086;-86
2022/06/01 08:24:53;;;;;;;16.38;10.18;;;;;;;25.28;54.04;101341.34;4946953;28;20039;-82
2022/06/01 08:27:19;;;;;;;16.88;9.77;;;;;;;25.49;53.42;101356.88;4932859;29;20031;-87
2022/06/01 08:29:44;;;;;;;16.98;10.27;;;;;;;25.28;53.72;101326.28;4951789;28;20524;-86
2022/06/01 08:32:09;;;;;;;18.38;10.18;;;;;;;25.46;52.68;101345.59;4952091;28;20101;-87
2022/06/01 08:34:35;;;;;;;16.85;10.93;;;;;;;25.46;52.29;101358.00;4933526;28;20054;-87
2022/06/01 08:37:01;;;;;;;14.45;10.10;;;;;;;25.45;52.30;101357.19;4916868;28;20895;-86
2022/06/01 08:39:26;;;;;;;17.08;10.60;;;;;;;25.72;53.23;101356.25;4953813;28;20111;-84
2022/06/01 08:41:51;;;;;;;19.95;10.57;;;;;;;25.63;52.67;101340.41;4931750;28;20039;-87
2022/06/01 08:44:30;;;;;;;15.13;9.75;;;;;;;25.91;51.64;101364.97;4938614;28;20496;-86
2022/06/01 08:46:58;;;;;;;15.52;10.23;;;;;;;25.71;51.52;101361.72;4956303;28;20163;-86
2022/06/01 08:49:26;;;;;;;14.93;9.15;;;;;;;25.80;51.65;101331.63;4938016;28;20039;-82
2022/06/01 08:51:52;;;;;;;15.05;9.02;;;;;;;25.99;50.37;101357.91;4941075;28;20109;-85
2022/06/01 08:54:18;;;;;;;15.38;8.98;;;;;;;26.11;51.91;101345.19;4924075;28;20704;-82
2022/06/01 08:56:46;;;;;;;15.05;8.55;;;;;;;26.13;49.51;101345.03;4944571;28;20042;-82
2022/06/01 08:59:30;;;;;;;12.55;8.25;;;;;;;26.28;50.19;101343.44;4926944;28;20089;-83
2022/06/01 09:02:05;;;;;;;14.10;9.00;;;;;;;26.31;50.19;101329.84;4961703;28;20488;-85
2022/06/01 09:04:51;;;;;;;16.63;9.00;;;;;;;26.78;49.69;101358.56;4946272;28;20516;-83
2022/06/01 09:07:29;;;;;;;15.93;9.00;;;;;;;27.06;48.24;101362.63;4936544;28;20075;-84
2022/06/01 09:10:10;;;;;;;15.25;9.20;;;;;;;27.19;48.77;101353.31;4951877;28;20057;-82
2022/06/01 09:12:35;;;;;;;15.30;8.95;;;;;;;27.15;48.80;101350.16;4954586;28;20027;-83
2022/06/01 09:15:17;;;;;;;13.65;8.52;;;;;;;27.18;48.42;101352.50;4935645;28;20054;-81
2022/06/01 09:17:43;;;;;;;13.32;8.63;;;;;;;26.92;48.00;101322.56;4920718;28;20611;-91
2022/06/01 09:22:53;;;;;;;12.93;8.30;;;;;;;27.04;48.18;101338.06;4931928;28;20065;-86
2022/06/01 09:25:22;;;;;;;12.65;8.02;;;;;;;27.21;48.65;101330.06;4939302;28;20027;-87
2022/06/01 09:27:52;;;;;;;19.55;9.10;;;;;;;27.40;48.73;101338.53;4935680;28;20039;-84
2022/06/01 09:30:29;;;;;;;12.10;8.32;;;;;;;27.62;47.73;101347.63;4939117;28;20033;-85
2022/06/01 09:33:02;;;;;;;10.15;7.60;;;;;;;27.64;46.61;101334.19;4931632;28;20126;-87
2022/06/01 09:35:29;;;;;;;17.25;8.00;;;;;;;27.77;46.18;101339.84;4947749;28;20512;-89
2022/06/01 09:37:55;;;;;;;12.82;7.93;;;;;;;27.87;46.08;101339.63;4947716;28;20416;-88
2022/06/01 09:40:31;;;;;;;12.88;7.78;;;;;;;28.03;46.65;101342.25;4937028;28;20034;-85
2022/06/01 09:43:00;;;;;;;15.60;7.90;;;;;;;27.93;46.21;101341.63;4957134;28;20035;-89
2022/06/01 09:45:55;;;;;;;26.10;18.15;;;;;;;27.97;47.42;101341.09;4953304;28;20038;-85
2022/06/01 09:48:24;;;;;;;12.02;8.13;;;;;;;27.86;47.46;101340.66;4952823;28;20088;-89
2022/06/01 09:51:04;;;;;;;12.88;7.70;;;;;;;27.82;46.97;101341.97;4955214;28;20942;-89
2022/06/01 09:53:41;;;;;;;15.80;9.73;;;;;;;28.01;46.38;101341.56;4943906;28;20028;-90
2022/06/01 09:56:07;;;;;;;9.32;7.95;;;;;;;28.01;46.06;101352.22;4923665;28;20065;-86
2022/06/01 10:06:53;;;;;;;9.85;8.20;;;;;;;28.33;45.60;101331.84;4938951;28;20214;-91
2022/06/01 10:09:39;;;;;;;12.15;7.80;;;;;;;28.53;45.68;101335.75;4942039;28;20027;-88
2022/06/01 10:12:42;;;;;;;11.60;7.97;;;;;;;28.77;43.41;101334.75;4954716;28;20039;-86
2022/06/01 10:15:30;;;;;;;12.50;7.40;;;;;;;28.76;44.43;101325.94;4956526;28;20225;-85
2022/06/01 10:18:29;;;;;;;14.50;7.78;;;;;;;28.70;44.11;101326.63;4938001;28;20050;-89
2022/06/01 10:21:03;;;;;;;11.57;8.02;;;;;;;28.75;43.91;101313.63;4925974;28;20047;-86
2022/06/01 10:23:51;;;;;;;9.75;7.20;;;;;;;28.77;43.28;101311.59;4939057;28;20054;-89
2022/06/01 10:26:21;;;;;;;12.48;7.60;;;;;;;28.90;43.76;101321.69;4955523;28;20126;-93
2022/06/01 10:28:50;;;;;;;9.77;7.30;;;;;;;29.04;43.26;101315.59;4959256;28;20030;-91
2022/06/01 10:31:24;;;;;;;14.85;7.65;;;;;;;29.17;43.51;101322.97;4949066;28;20040;-84
2022/06/01 10:33:55;;;;;;;14.43;9.43;;;;;;;29.29;42.97;101307.38;4952907;28;20102;-88
2022/06/01 10:36:43;;;;;;;16.15;11.88;;;;;;;29.59;43.01;101305.59;4935732;28;20031;-84
2022/06/01 10:39:18;;;;;;;11.98;7.68;;;;;;;29.72;41.66;101319.16;4934196;28;20050;-86
2022/06/01 10:42:04;;;;;;;10.43;7.28;;;;;;;29.53;42.04;101317.84;4956767;28;20031;-84
2022/06/01 10:44:36;;;;;;;15.95;7.65;;;;;;;29.33;40.48;101317.50;4941186;28;20509;-85
2022/06/01 10:47:08;;;;;;;;;;;;;;;29.41;41.54;101312.09;4956699;28;20105;-86
2022/06/01 10:50:04;;;;;;;11.83;6.80;;;;;;;29.65;40.31;101310.22;4967492;28;19925;-85
2022/06/01 10:52:38;;;;;;;9.75;6.63;;;;;;;29.86;40.98;101310.31;4959038;28;20050;-85
2022/06/01 10:55:44;;;;;;;14.40;6.70;;;;;;;29.93;39.68;101305.91;4953748;28;20019;-87
2022/06/01 10:58:21;;;;;;;9.75;7.45;;;;;;;30.07;39.78;101303.41;4894723;29;20072;-86
2022/06/01 11:00:55;;;;;;;10.63;7.15;;;;;;;29.95;39.99;101303.03;4942377;29;20110;-87
2022/06/01 11:03:30;;;;;;;8.55;6.28;;;;;;;29.97;39.14;101293.00;4952034;28;20031;-85
2022/06/01 11:06:14;;;;;;;11.38;6.65;;;;;;;29.88;39.90;101284.28;4952219;28;20039;-84
2022/06/01 11:08:52;;;;;;;10.10;6.95;;;;;;;30.25;38.74;101295.84;4937893;28;20149;-86
2022/06/01 11:11:21;;;;;;;8.05;6.57;;;;;;;30.08;38.83;101294.41;4933796;29;20023;-84
2022/06/01 11:13:58;;;;;;;10.57;6.78;;;;;;;30.24;38.78;101283.50;4934494;29;20040;-87
2022/06/01 11:16:39;;;;;;;11.90;7.03;;;;;;;30.32;39.12;101298.59;4942284;29;20035;-87
2022/06/01 11:19:10;;;;;;;9.63;6.65;;;;;;;30.06;39.16;101272.38;4951035;29;20050;-84
2022/06/01 11:21:47;;;;;;;11.47;6.50;;;;;;;30.28;38.85;101298.13;4952020;29;20027;-86
2022/06/01 11:24:37;;;;;;;11.23;6.53;;;;;;;30.21;38.91;101283.91;4953308;28;20024;-85
2022/06/01 11:27:18;;;;;;;11.13;6.35;;;;;;;29.83;39.41;101270.69;4933934;29;20035;-87
2022/06/01 11:29:55;;;;;;;13.88;8.50;;;;;;;29.90;40.08;101268.94;4952213;29;20516;-89
2022/06/01 11:32:32;;;;;;;9.93;6.55;;;;;;;30.46;39.33;101274.50;4952891;29;20070;-89
2022/06/01 11:35:15;;;;;;;10.85;6.75;;;;;;;30.68;37.94;101277.22;4936675;29;20031;-87
2022/06/01 11:37:57;;;;;;;12.13;6.70;;;;;;;30.84;38.83;101251.06;4910504;28;1236578;-88
2022/06/01 11:40:40;;;;;;;9.23;6.50;;;;;;;31.07;37.23;101266.03;4938756;28;20039;-87
2022/06/01 11:43:18;;;;;;;10.27;6.38;;;;;;;31.20;36.98;101263.50;4963158;28;20023;-88
2022/06/01 11:45:53;;;;;;;11.80;7.55;;;;;;;31.03;37.83;101252.25;4953650;28;20118;-83
2022/06/01 11:48:25;;;;;;;8.48;6.32;;;;;;;30.71;38.20;101260.81;4936628;29;20031;-84
2022/06/01 11:50:55;;;;;;;13.18;6.80;;;;;;;30.80;37.73;101238.31;4951857;28;20513;-87